sensor_id;sensor_type;location;lat;lon;timestamp;P1;durP1;ratioP1;P2;durP2;ratioP2
16922;SDS011;8578;50.938;13.556;2023-05-07T00:00:56;16.93;;;8.97;;
16922;SDS011;8578;50.938;13.556;2023-05-07T00:03:25;15.73;;;9.93;;
16922;SDS011;8578;50.938;13.556;2023-05-07T00:05:53;17.50;;;9.70;;
16922;SDS011;8578;50.938;13.556;2023-05-07T00:08:22;20.40;;;9.10;;
16922;SDS011;8578;50.938;13.556;2023-05-07T00:10:49;13.97;;;7.57;;
16922;SDS011;8578;50.938;13.556;2023-05-07T00:13:17;15.20;;;8.43;;
16922;SDS011;8578;50.938;13.556;2023-05-07T00:15:44;13.23;;;8.13;;
16922;SDS011;8578;50.938;13.556;2023-05-07T00:18:11;10.20;;;7.00;;
16922;SDS011;8578;50.938;13.556;2023-05-07T00:20:39;13.77;;;7.63;;
16922;SDS011;8578;50.938;13.556;2023-05-07T00:23:06;12.03;;;6.30;;
16922;SDS011;8578;50.938;13.556;2023-05-07T00:25:35;9.80;;;6.53;;
16922;SDS011;8578;50.938;13.556;2023-05-07T00:28:02;13.63;;;6.60;;
16922;SDS011;8578;50.938;13.556;2023-05-07T00:30:30;13.43;;;7.30;;
16922;SDS011;8578;50.938;13.556;2023-05-07T00:32:58;11.93;;;7.47;;
16922;SDS011;8578;50.938;13.556;2023-05-07T00:35:25;13.87;;;7.93;;
16922;SDS011;8578;50.938;13.556;2023-05-07T00:37:53;10.80;;;6.10;;
16922;SDS011;8578;50.938;13.556;2023-05-07T00:40:21;12.97;;;8.17;;
16922;SDS011;8578;50.938;13.556;2023-05-07T00:42:50;15.40;;;9.10;;
16922;SDS011;8578;50.938;13.556;2023-05-07T00:45:23;17.63;;;9.73;;
16922;SDS011;8578;50.938;13.556;2023-05-07T00:47:53;17.63;;;9.90;;
16922;SDS011;8578;50.938;13.556;2023-05-07T00:50:21;15.57;;;8.63;;
16922;SDS011;8578;50.938;13.556;2023-05-07T00:52:49;16.90;;;8.87;;
16922;SDS011;8578;50.938;13.556;2023-05-07T00:55:17;16.33;;;9.70;;
16922;SDS011;8578;50.938;13.556;2023-05-07T00:57:44;14.77;;;8.50;;
16922;SDS011;8578;50.938;13.556;2023-05-07T01:00:13;16.53;;;9.17;;
16922;SDS011;8578;50.938;13.556;2023-05-07T01:02:41;16.43;;;8.33;;
16922;SDS011;8578;50.938;13.556;2023-05-07T01:05:10;14.67;;;9.00;;
16922;SDS011;8578;50.938;13.556;2023-05-07T01:07:39;13.57;;;7.97;;
16922;SDS011;8578;50.938;13.556;2023-05-07T01:10:08;13.97;;;8.60;;
16922;SDS011;8578;50.938;13.556;2023-05-07T01:12:36;12.20;;;8.03;;
16922;SDS011;8578;50.938;13.556;2023-05-07T01:15:04;14.33;;;8.33;;
16922;SDS011;8578;50.938;13.556;2023-05-07T01:17:34;14.60;;;8.77;;
16922;SDS011;8578;50.938;13.556;2023-05-07T01:20:02;14.20;;;8.50;;
16922;SDS011;8578;50.938;13.556;2023-05-07T01:22:32;12.87;;;8.17;;
16922;SDS011;8578;50.938;13.556;2023-05-07T01:25:00;14.70;;;8.43;;
16922;SDS011;8578;50.938;13.556;2023-05-07T01:27:30;15.83;;;8.80;;
16922;SDS011;8578;50.938;13.556;2023-05-07T01:29:59;15.17;;;9.20;;
16922;SDS011;8578;50.938;13.556;2023-05-07T01:32:27;17.23;;;9.80;;
16922;SDS011;8578;50.938;13.556;2023-05-07T01:34:56;15.20;;;8.80;;
16922;SDS011;8578;50.938;13.556;2023-05-07T01:37:25;17.27;;;8.87;;
16922;SDS011;8578;50.938;13.556;2023-05-07T01:39:54;16.23;;;8.40;;
16922;SDS011;8578;50.938;13.556;2023-05-07T01:42:21;15.03;;;8.80;;
16922;SDS011;8578;50.938;13.556;2023-05-07T01:44:49;15.80;;;9.33;;
16922;SDS011;8578;50.938;13.556;2023-05-07T01:47:16;11.93;;;8.20;;
16922;SDS011;8578;50.938;13.556;2023-05-07T01:49:44;14.00;;;8.77;;
16922;SDS011;8578;50.938;13.556;2023-05-07T01:52:11;14.63;;;8.23;;
16922;SDS011;8578;50.938;13.556;2023-05-07T01:54:39;14.17;;;8.40;;
16922;SDS011;8578;50.938;13.556;2023-05-07T01:57:07;15.27;;;8.93;;
16922;SDS011;8578;50.938;13.556;2023-05-07T01:59:35;13.83;;;9.33;;
16922;SDS011;8578;50.938;13.556;2023-05-07T02:02:03;18.37;;;10.73;;
16922;SDS011;8578;50.938;13.556;2023-05-07T02:04:32;16.33;;;9.67;;
16922;SDS011;8578;50.938;13.556;2023-05-07T02:06:59;16.60;;;9.70;;
16922;SDS011;8578;50.938;13.556;2023-05-07T02:09:28;16.33;;;10.10;;
16922;SDS011;8578;50.938;13.556;2023-05-07T02:11:56;17.73;;;10.40;;
16922;SDS011;8578;50.938;13.556;2023-05-07T02:14:25;17.73;;;10.37;;
16922;SDS011;8578;50.938;13.556;2023-05-07T02:16:53;17.60;;;10.00;;
16922;SDS011;8578;50.938;13.556;2023-05-07T02:19:21;19.77;;;10.70;;
16922;SDS011;8578;50.938;13.556;2023-05-07T02:21:49;17.77;;;10.47;;
16922;SDS011;8578;50.938;13.556;2023-05-07T02:24:16;17.33;;;10.73;;
16922;SDS011;8578;50.938;13.556;2023-05-07T02:26:44;18.50;;;10.30;;
16922;SDS011;8578;50.938;13.556;2023-05-07T02:29:11;18.57;;;10.43;;
16922;SDS011;8578;50.938;13.556;2023-05-07T02:31:41;17.00;;;10.07;;
16922;SDS011;8578;50.938;13.556;2023-05-07T02:34:09;19.13;;;9.63;;
16922;SDS011;8578;50.938;13.556;2023-05-07T02:36:37;21.00;;;11.37;;
16922;SDS011;8578;50.938;13.556;2023-05-07T02:39:09;17.67;;;10.50;;
16922;SDS011;8578;50.938;13.556;2023-05-07T02:41:37;19.40;;;10.90;;
16922;SDS011;8578;50.938;13.556;2023-05-07T02:44:04;19.47;;;11.43;;
16922;SDS011;8578;50.938;13.556;2023-05-07T02:46:32;19.60;;;11.40;;
16922;SDS011;8578;50.938;13.556;2023-05-07T02:49:07;18.47;;;11.10;;
16922;SDS011;8578;50.938;13.556;2023-05-07T02:51:34;18.67;;;10.30;;
16922;SDS011;8578;50.938;13.556;2023-05-07T02:54:07;17.53;;;10.57;;
16922;SDS011;8578;50.938;13.556;2023-05-07T02:56:34;20.47;;;10.37;;
16922;SDS011;8578;50.938;13.556;2023-05-07T02:59:01;18.30;;;10.47;;
16922;SDS011;8578;50.938;13.556;2023-05-07T03:01:33;16.10;;;10.17;;
16922;SDS011;8578;50.938;13.556;2023-05-07T03:04:03;17.70;;;9.97;;
16922;SDS011;8578;50.938;13.556;2023-05-07T03:06:32;18.47;;;11.17;;
16922;SDS011;8578;50.938;13.556;2023-05-07T03:09:00;18.53;;;11.30;;
16922;SDS011;8578;50.938;13.556;2023-05-07T03:11:28;20.53;;;12.43;;
16922;SDS011;8578;50.938;13.556;2023-05-07T03:13:56;17.03;;;10.57;;
16922;SDS011;8578;50.938;13.556;2023-05-07T03:16:24;19.90;;;11.70;;
16922;SDS011;8578;50.938;13.556;2023-05-07T03:18:52;19.37;;;11.17;;
16922;SDS011;8578;50.938;13.556;2023-05-07T03:21:20;20.33;;;11.40;;
16922;SDS011;8578;50.938;13.556;2023-05-07T03:23:49;17.33;;;11.17;;
16922;SDS011;8578;50.938;13.556;2023-05-07T03:26:17;18.37;;;10.50;;
16922;SDS011;8578;50.938;13.556;2023-05-07T03:28:44;18.17;;;10.93;;
16922;SDS011;8578;50.938;13.556;2023-05-07T03:31:14;17.63;;;11.40;;
16922;SDS011;8578;50.938;13.556;2023-05-07T03:33:49;18.27;;;11.40;;
16922;SDS011;8578;50.938;13.556;2023-05-07T03:36:17;17.07;;;10.80;;
16922;SDS011;8578;50.938;13.556;2023-05-07T03:38:44;17.50;;;11.17;;
16922;SDS011;8578;50.938;13.556;2023-05-07T03:41:18;18.13;;;11.47;;
16922;SDS011;8578;50.938;13.556;2023-05-07T03:43:46;18.90;;;11.17;;
16922;SDS011;8578;50.938;13.556;2023-05-07T03:46:14;18.37;;;10.77;;
16922;SDS011;8578;50.938;13.556;2023-05-07T03:48:41;17.60;;;10.50;;
16922;SDS011;8578;50.938;13.556;2023-05-07T03:51:11;19.30;;;12.07;;
16922;SDS011;8578;50.938;13.556;2023-05-07T03:53:39;17.33;;;11.40;;
16922;SDS011;8578;50.938;13.556;2023-05-07T03:56:06;21.07;;;12.43;;
16922;SDS011;8578;50.938;13.556;2023-05-07T03:58:38;20.13;;;11.70;;
16922;SDS011;8578;50.938;13.556;2023-05-07T04:01:08;20.63;;;11.80;;
16922;SDS011;8578;50.938;13.556;2023-05-07T04:03:36;20.77;;;12.10;;
16922;SDS011;8578;50.938;13.556;2023-05-07T04:06:03;20.63;;;12.70;;
16922;SDS011;8578;50.938;13.556;2023-05-07T04:08:33;20.43;;;12.10;;
16922;SDS011;8578;50.938;13.556;2023-05-07T04:11:02;23.77;;;12.87;;
16922;SDS011;8578;50.938;13.556;2023-05-07T04:13:31;22.33;;;13.17;;
16922;SDS011;8578;50.938;13.556;2023-05-07T04:16:02;19.47;;;12.13;;
16922;SDS011;8578;50.938;13.556;2023-05-07T04:18:32;20.67;;;12.33;;
16922;SDS011;8578;50.938;13.556;2023-05-07T04:21:00;20.63;;;12.07;;
16922;SDS011;8578;50.938;13.556;2023-05-07T04:23:27;24.10;;;12.43;;
16922;SDS011;8578;50.938;13.556;2023-05-07T04:25:57;20.67;;;11.93;;
16922;SDS011;8578;50.938;13.556;2023-05-07T04:28:35;20.57;;;11.50;;
16922;SDS011;8578;50.938;13.556;2023-05-07T04:31:04;20.53;;;12.07;;
16922;SDS011;8578;50.938;13.556;2023-05-07T04:33:34;18.57;;;10.77;;
16922;SDS011;8578;50.938;13.556;2023-05-07T04:36:02;19.50;;;12.00;;
16922;SDS011;8578;50.938;13.556;2023-05-07T04:38:35;18.23;;;10.50;;
16922;SDS011;8578;50.938;13.556;2023-05-07T04:41:04;16.57;;;9.50;;
16922;SDS011;8578;50.938;13.556;2023-05-07T04:43:36;19.10;;;10.53;;
16922;SDS011;8578;50.938;13.556;2023-05-07T04:46:05;17.63;;;10.33;;
16922;SDS011;8578;50.938;13.556;2023-05-07T04:48:34;16.43;;;9.93;;
16922;SDS011;8578;50.938;13.556;2023-05-07T04:51:04;14.57;;;9.10;;
16922;SDS011;8578;50.938;13.556;2023-05-07T04:53:32;12.87;;;7.67;;
16922;SDS011;8578;50.938;13.556;2023-05-07T04:55:59;13.10;;;8.37;;
16922;SDS011;8578;50.938;13.556;2023-05-07T04:58:34;13.97;;;8.57;;
16922;SDS011;8578;50.938;13.556;2023-05-07T05:01:01;12.37;;;8.00;;
16922;SDS011;8578;50.938;13.556;2023-05-07T05:03:31;12.13;;;7.37;;
16922;SDS011;8578;50.938;13.556;2023-05-07T05:05:58;12.50;;;7.57;;
16922;SDS011;8578;50.938;13.556;2023-05-07T05:08:30;11.97;;;6.87;;
16922;SDS011;8578;50.938;13.556;2023-05-07T05:11:00;12.23;;;7.37;;
16922;SDS011;8578;50.938;13.556;2023-05-07T05:13:28;13.60;;;7.57;;
16922;SDS011;8578;50.938;13.556;2023-05-07T05:15:57;11.03;;;7.10;;
16922;SDS011;8578;50.938;13.556;2023-05-07T05:18:25;11.53;;;6.70;;
16922;SDS011;8578;50.938;13.556;2023-05-07T05:20:54;11.50;;;7.33;;
16922;SDS011;8578;50.938;13.556;2023-05-07T05:23:22;11.27;;;6.83;;
16922;SDS011;8578;50.938;13.556;2023-05-07T05:25:50;12.37;;;7.33;;
16922;SDS011;8578;50.938;13.556;2023-05-07T05:28:22;11.10;;;7.50;;
16922;SDS011;8578;50.938;13.556;2023-05-07T05:30:49;11.20;;;6.43;;
16922;SDS011;8578;50.938;13.556;2023-05-07T05:33:18;12.30;;;7.07;;
16922;SDS011;8578;50.938;13.556;2023-05-07T05:35:45;10.70;;;7.00;;
16922;SDS011;8578;50.938;13.556;2023-05-07T05:38:14;9.97;;;7.13;;
16922;SDS011;8578;50.938;13.556;2023-05-07T05:40:41;12.97;;;7.00;;
16922;SDS011;8578;50.938;13.556;2023-05-07T05:43:09;12.53;;;6.83;;
16922;SDS011;8578;50.938;13.556;2023-05-07T05:45:37;11.90;;;7.17;;
16922;SDS011;8578;50.938;13.556;2023-05-07T05:48:05;12.97;;;7.33;;
16922;SDS011;8578;50.938;13.556;2023-05-07T05:50:32;11.23;;;7.23;;
16922;SDS011;8578;50.938;13.556;2023-05-07T05:53:03;11.77;;;6.97;;
16922;SDS011;8578;50.938;13.556;2023-05-07T05:55:32;13.40;;;6.93;;
16922;SDS011;8578;50.938;13.556;2023-05-07T05:57:59;10.50;;;6.60;;
16922;SDS011;8578;50.938;13.556;2023-05-07T06:00:29;11.47;;;6.87;;
16922;SDS011;8578;50.938;13.556;2023-05-07T06:03:01;12.60;;;7.57;;
16922;SDS011;8578;50.938;13.556;2023-05-07T06:05:29;11.53;;;7.10;;
16922;SDS011;8578;50.938;13.556;2023-05-07T06:07:56;13.00;;;7.83;;
16922;SDS011;8578;50.938;13.556;2023-05-07T06:10:27;11.17;;;6.73;;
16922;SDS011;8578;50.938;13.556;2023-05-07T06:12:57;11.77;;;6.60;;
16922;SDS011;8578;50.938;13.556;2023-05-07T06:15:26;11.63;;;6.93;;
16922;SDS011;8578;50.938;13.556;2023-05-07T06:17:54;11.97;;;7.40;;
16922;SDS011;8578;50.938;13.556;2023-05-07T06:20:23;11.30;;;7.00;;
16922;SDS011;8578;50.938;13.556;2023-05-07T06:22:51;10.73;;;6.80;;
16922;SDS011;8578;50.938;13.556;2023-05-07T06:25:19;10.03;;;6.70;;
16922;SDS011;8578;50.938;13.556;2023-05-07T06:27:47;11.37;;;6.73;;
16922;SDS011;8578;50.938;13.556;2023-05-07T06:30:15;11.40;;;6.90;;
16922;SDS011;8578;50.938;13.556;2023-05-07T06:32:43;11.67;;;7.13;;
16922;SDS011;8578;50.938;13.556;2023-05-07T06:35:12;12.67;;;7.70;;
16922;SDS011;8578;50.938;13.556;2023-05-07T06:37:40;11.73;;;7.20;;
16922;SDS011;8578;50.938;13.556;2023-05-07T06:40:13;11.67;;;7.20;;
16922;SDS011;8578;50.938;13.556;2023-05-07T06:42:43;10.23;;;6.47;;
16922;SDS011;8578;50.938;13.556;2023-05-07T06:45:34;11.23;;;6.70;;
16922;SDS011;8578;50.938;13.556;2023-05-07T06:48:04;12.27;;;7.27;;
16922;SDS011;8578;50.938;13.556;2023-05-07T06:50:38;11.97;;;7.23;;
16922;SDS011;8578;50.938;13.556;2023-05-07T06:53:06;14.30;;;7.27;;
16922;SDS011;8578;50.938;13.556;2023-05-07T06:55:34;11.57;;;7.30;;
16922;SDS011;8578;50.938;13.556;2023-05-07T06:58:05;14.30;;;8.17;;
16922;SDS011;8578;50.938;13.556;2023-05-07T07:00:33;15.47;;;8.67;;
16922;SDS011;8578;50.938;13.556;2023-05-07T07:03:02;20.13;;;11.20;;
16922;SDS011;8578;50.938;13.556;2023-05-07T07:05:30;39.20;;;17.90;;
16922;SDS011;8578;50.938;13.556;2023-05-07T07:07:58;20.30;;;11.37;;
16922;SDS011;8578;50.938;13.556;2023-05-07T07:10:26;32.90;;;14.90;;
16922;SDS011;8578;50.938;13.556;2023-05-07T07:12:54;19.17;;;10.37;;
16922;SDS011;8578;50.938;13.556;2023-05-07T07:15:22;14.73;;;8.17;;
16922;SDS011;8578;50.938;13.556;2023-05-07T07:17:52;17.37;;;8.73;;
16922;SDS011;8578;50.938;13.556;2023-05-07T07:20:22;13.70;;;7.83;;
16922;SDS011;8578;50.938;13.556;2023-05-07T07:22:51;12.30;;;6.67;;
16922;SDS011;8578;50.938;13.556;2023-05-07T07:25:18;11.47;;;6.20;;
16922;SDS011;8578;50.938;13.556;2023-05-07T07:27:47;9.90;;;5.70;;
16922;SDS011;8578;50.938;13.556;2023-05-07T07:30:15;10.53;;;6.07;;
16922;SDS011;8578;50.938;13.556;2023-05-07T07:32:46;7.20;;;4.80;;
16922;SDS011;8578;50.938;13.556;2023-05-07T07:35:14;8.30;;;5.07;;
16922;SDS011;8578;50.938;13.556;2023-05-07T07:37:44;8.63;;;4.93;;
16922;SDS011;8578;50.938;13.556;2023-05-07T07:40:13;8.00;;;4.33;;
16922;SDS011;8578;50.938;13.556;2023-05-07T07:42:41;7.40;;;4.73;;
16922;SDS011;8578;50.938;13.556;2023-05-07T07:45:10;5.57;;;4.03;;
16922;SDS011;8578;50.938;13.556;2023-05-07T07:47:43;6.87;;;3.80;;
16922;SDS011;8578;50.938;13.556;2023-05-07T07:50:11;7.20;;;4.30;;
16922;SDS011;8578;50.938;13.556;2023-05-07T07:52:51;7.93;;;4.67;;
16922;SDS011;8578;50.938;13.556;2023-05-07T07:55:19;5.80;;;3.90;;
16922;SDS011;8578;50.938;13.556;2023-05-07T07:57:51;5.00;;;3.60;;
16922;SDS011;8578;50.938;13.556;2023-05-07T08:00:19;6.47;;;4.00;;
16922;SDS011;8578;50.938;13.556;2023-05-07T08:02:51;4.90;;;3.50;;
16922;SDS011;8578;50.938;13.556;2023-05-07T08:05:25;6.40;;;4.40;;
16922;SDS011;8578;50.938;13.556;2023-05-07T08:07:54;6.77;;;3.73;;
16922;SDS011;8578;50.938;13.556;2023-05-07T08:10:26;6.17;;;4.33;;
16922;SDS011;8578;50.938;13.556;2023-05-07T08:13:01;5.00;;;3.83;;
16922;SDS011;8578;50.938;13.556;2023-05-07T08:15:30;6.00;;;4.07;;
16922;SDS011;8578;50.938;13.556;2023-05-07T08:17:58;7.27;;;4.50;;
16922;SDS011;8578;50.938;13.556;2023-05-07T08:20:27;8.80;;;5.00;;
16922;SDS011;8578;50.938;13.556;2023-05-07T08:22:57;8.53;;;4.60;;
16922;SDS011;8578;50.938;13.556;2023-05-07T08:25:26;6.77;;;4.43;;
16922;SDS011;8578;50.938;13.556;2023-05-07T08:27:53;9.30;;;5.53;;
16922;SDS011;8578;50.938;13.556;2023-05-07T08:30:21;7.70;;;5.37;;
16922;SDS011;8578;50.938;13.556;2023-05-07T08:32:50;8.87;;;5.53;;
16922;SDS011;8578;50.938;13.556;2023-05-07T08:35:17;7.87;;;4.90;;
16922;SDS011;8578;50.938;13.556;2023-05-07T08:37:46;8.23;;;5.20;;
16922;SDS011;8578;50.938;13.556;2023-05-07T08:40:18;6.57;;;4.90;;
16922;SDS011;8578;50.938;13.556;2023-05-07T08:42:48;6.80;;;5.10;;
16922;SDS011;8578;50.938;13.556;2023-05-07T08:45:16;7.67;;;4.93;;
16922;SDS011;8578;50.938;13.556;2023-05-07T08:47:46;7.23;;;4.60;;
16922;SDS011;8578;50.938;13.556;2023-05-07T08:50:16;6.83;;;4.77;;
16922;SDS011;8578;50.938;13.556;2023-05-07T08:52:44;7.20;;;4.80;;
16922;SDS011;8578;50.938;13.556;2023-05-07T08:55:11;8.27;;;5.73;;
16922;SDS011;8578;50.938;13.556;2023-05-07T08:57:42;7.47;;;5.50;;
16922;SDS011;8578;50.938;13.556;2023-05-07T09:00:11;6.80;;;4.43;;
16922;SDS011;8578;50.938;13.556;2023-05-07T09:02:39;6.43;;;3.83;;
16922;SDS011;8578;50.938;13.556;2023-05-07T09:05:08;5.53;;;4.10;;
16922;SDS011;8578;50.938;13.556;2023-05-07T09:07:37;4.67;;;3.80;;
16922;SDS011;8578;50.938;13.556;2023-05-07T09:10:06;4.57;;;3.70;;
16922;SDS011;8578;50.938;13.556;2023-05-07T09:12:37;4.87;;;3.63;;
16922;SDS011;8578;50.938;13.556;2023-05-07T09:15:09;7.43;;;4.20;;
16922;SDS011;8578;50.938;13.556;2023-05-07T09:17:37;5.10;;;3.73;;
16922;SDS011;8578;50.938;13.556;2023-05-07T09:20:06;6.07;;;4.20;;
16922;SDS011;8578;50.938;13.556;2023-05-07T09:22:37;6.93;;;4.23;;
16922;SDS011;8578;50.938;13.556;2023-05-07T09:25:08;5.83;;;3.93;;
16922;SDS011;8578;50.938;13.556;2023-05-07T09:27:38;5.50;;;4.10;;
16922;SDS011;8578;50.938;13.556;2023-05-07T09:30:06;6.67;;;4.57;;
16922;SDS011;8578;50.938;13.556;2023-05-07T09:32:36;5.90;;;4.67;;
16922;SDS011;8578;50.938;13.556;2023-05-07T09:35:14;5.90;;;4.70;;
16922;SDS011;8578;50.938;13.556;2023-05-07T09:37:42;6.50;;;4.50;;
16922;SDS011;8578;50.938;13.556;2023-05-07T09:40:11;8.50;;;5.13;;
16922;SDS011;8578;50.938;13.556;2023-05-07T09:42:47;19.43;;;9.03;;
16922;SDS011;8578;50.938;13.556;2023-05-07T09:45:16;23.97;;;11.50;;
16922;SDS011;8578;50.938;13.556;2023-05-07T09:47:44;23.10;;;11.33;;
16922;SDS011;8578;50.938;13.556;2023-05-07T09:50:14;36.87;;;16.83;;
16922;SDS011;8578;50.938;13.556;2023-05-07T09:52:43;20.43;;;10.53;;
16922;SDS011;8578;50.938;13.556;2023-05-07T09:55:11;7.17;;;5.50;;
16922;SDS011;8578;50.938;13.556;2023-05-07T09:57:39;6.20;;;4.70;;
16922;SDS011;8578;50.938;13.556;2023-05-07T10:00:08;6.90;;;4.17;;
16922;SDS011;8578;50.938;13.556;2023-05-07T10:02:47;7.13;;;4.60;;
16922;SDS011;8578;50.938;13.556;2023-05-07T10:05:19;7.57;;;4.97;;
16922;SDS011;8578;50.938;13.556;2023-05-07T10:07:48;4.73;;;3.67;;
16922;SDS011;8578;50.938;13.556;2023-05-07T10:10:16;6.03;;;4.60;;
16922;SDS011;8578;50.938;13.556;2023-05-07T10:12:45;10.03;;;6.23;;
16922;SDS011;8578;50.938;13.556;2023-05-07T10:15:21;6.23;;;4.90;;
16922;SDS011;8578;50.938;13.556;2023-05-07T10:17:55;5.60;;;4.47;;
16922;SDS011;8578;50.938;13.556;2023-05-07T10:20:23;5.97;;;4.63;;
16922;SDS011;8578;50.938;13.556;2023-05-07T10:22:54;4.80;;;4.10;;
16922;SDS011;8578;50.938;13.556;2023-05-07T10:25:28;6.97;;;4.97;;
16922;SDS011;8578;50.938;13.556;2023-05-07T10:28:03;5.63;;;4.63;;
16922;SDS011;8578;50.938;13.556;2023-05-07T10:30:34;6.57;;;4.50;;
16922;SDS011;8578;50.938;13.556;2023-05-07T10:33:09;7.07;;;4.57;;
16922;SDS011;8578;50.938;13.556;2023-05-07T10:35:42;6.57;;;4.43;;
16922;SDS011;8578;50.938;13.556;2023-05-07T10:38:11;6.57;;;4.80;;
16922;SDS011;8578;50.938;13.556;2023-05-07T10:40:43;5.30;;;4.40;;
16922;SDS011;8578;50.938;13.556;2023-05-07T10:43:15;6.83;;;5.13;;
16922;SDS011;8578;50.938;13.556;2023-05-07T10:48:36;5.80;;;4.50;;
16922;SDS011;8578;50.938;13.556;2023-05-07T10:51:25;5.77;;;4.23;;
16922;SDS011;8578;50.938;13.556;2023-05-07T10:59:44;5.80;;;4.37;;
16922;SDS011;8578;50.938;13.556;2023-05-07T11:02:18;5.33;;;4.40;;
16922;SDS011;8578;50.938;13.556;2023-05-07T11:07:54;5.50;;;4.30;;
16922;SDS011;8578;50.938;13.556;2023-05-07T11:10:50;5.43;;;4.30;;
16922;SDS011;8578;50.938;13.556;2023-05-07T11:13:40;5.30;;;4.13;;
16922;SDS011;8578;50.938;13.556;2023-05-07T11:16:17;5.43;;;4.37;;
16922;SDS011;8578;50.938;13.556;2023-05-07T11:18:56;6.23;;;4.20;;
16922;SDS011;8578;50.938;13.556;2023-05-07T11:21:34;5.93;;;4.87;;
16922;SDS011;8578;50.938;13.556;2023-05-07T11:24:23;5.00;;;4.30;;
16922;SDS011;8578;50.938;13.556;2023-05-07T11:26:56;5.57;;;4.50;;
16922;SDS011;8578;50.938;13.556;2023-05-07T11:29:25;5.23;;;4.30;;
16922;SDS011;8578;50.938;13.556;2023-05-07T11:31:58;6.30;;;4.70;;
16922;SDS011;8578;50.938;13.556;2023-05-07T11:34:35;6.77;;;4.00;;
16922;SDS011;8578;50.938;13.556;2023-05-07T11:37:03;5.83;;;4.63;;
16922;SDS011;8578;50.938;13.556;2023-05-07T11:39:48;6.67;;;4.37;;
16922;SDS011;8578;50.938;13.556;2023-05-07T11:42:25;6.90;;;4.63;;
16922;SDS011;8578;50.938;13.556;2023-05-07T11:44:52;5.30;;;4.30;;
16922;SDS011;8578;50.938;13.556;2023-05-07T11:47:20;5.80;;;4.53;;
16922;SDS011;8578;50.938;13.556;2023-05-07T11:49:48;5.40;;;4.13;;
16922;SDS011;8578;50.938;13.556;2023-05-07T11:52:15;7.53;;;4.50;;
16922;SDS011;8578;50.938;13.556;2023-05-07T11:54:49;5.87;;;4.63;;
16922;SDS011;8578;50.938;13.556;2023-05-07T11:57:16;5.87;;;4.73;;
16922;SDS011;8578;50.938;13.556;2023-05-07T11:59:44;5.87;;;4.27;;
16922;SDS011;8578;50.938;13.556;2023-05-07T12:02:13;6.03;;;4.90;;
16922;SDS011;8578;50.938;13.556;2023-05-07T12:04:41;6.33;;;4.50;;
16922;SDS011;8578;50.938;13.556;2023-05-07T12:07:11;6.60;;;4.90;;
16922;SDS011;8578;50.938;13.556;2023-05-07T12:09:38;6.77;;;4.40;;
16922;SDS011;8578;50.938;13.556;2023-05-07T12:12:07;6.07;;;4.77;;
16922;SDS011;8578;50.938;13.556;2023-05-07T12:14:37;5.30;;;4.17;;
16922;SDS011;8578;50.938;13.556;2023-05-07T12:17:04;5.23;;;4.70;;
16922;SDS011;8578;50.938;13.556;2023-05-07T12:19:33;8.20;;;4.57;;
16922;SDS011;8578;50.938;13.556;2023-05-07T12:22:01;5.83;;;5.00;;
16922;SDS011;8578;50.938;13.556;2023-05-07T12:24:28;6.77;;;5.23;;
16922;SDS011;8578;50.938;13.556;2023-05-07T12:26:56;6.00;;;5.00;;
16922;SDS011;8578;50.938;13.556;2023-05-07T12:29:25;6.13;;;4.53;;
16922;SDS011;8578;50.938;13.556;2023-05-07T12:31:54;5.43;;;4.10;;
16922;SDS011;8578;50.938;13.556;2023-05-07T12:34:21;5.50;;;4.50;;
16922;SDS011;8578;50.938;13.556;2023-05-07T12:36:49;5.50;;;4.77;;
16922;SDS011;8578;50.938;13.556;2023-05-07T12:39:17;6.33;;;4.33;;
16922;SDS011;8578;50.938;13.556;2023-05-07T12:41:53;6.13;;;4.57;;
16922;SDS011;8578;50.938;13.556;2023-05-07T12:44:21;5.60;;;4.57;;
16922;SDS011;8578;50.938;13.556;2023-05-07T12:46:50;5.73;;;4.80;;
16922;SDS011;8578;50.938;13.556;2023-05-07T12:49:18;6.10;;;4.40;;
16922;SDS011;8578;50.938;13.556;2023-05-07T12:51:50;6.40;;;5.00;;
16922;SDS011;8578;50.938;13.556;2023-05-07T12:54:27;6.40;;;4.83;;
16922;SDS011;8578;50.938;13.556;2023-05-07T12:56:59;6.50;;;4.50;;
16922;SDS011;8578;50.938;13.556;2023-05-07T12:59:30;5.73;;;4.70;;
16922;SDS011;8578;50.938;13.556;2023-05-07T13:01:59;6.43;;;5.00;;
16922;SDS011;8578;50.938;13.556;2023-05-07T13:04:27;7.07;;;4.87;;
16922;SDS011;8578;50.938;13.556;2023-05-07T13:06:54;5.70;;;4.53;;
16922;SDS011;8578;50.938;13.556;2023-05-07T13:09:22;5.70;;;4.60;;
16922;SDS011;8578;50.938;13.556;2023-05-07T13:11:49;5.93;;;5.03;;
16922;SDS011;8578;50.938;13.556;2023-05-07T13:14:17;6.30;;;4.90;;
16922;SDS011;8578;50.938;13.556;2023-05-07T13:16:47;7.40;;;4.80;;
16922;SDS011;8578;50.938;13.556;2023-05-07T13:19:16;4.80;;;4.20;;
16922;SDS011;8578;50.938;13.556;2023-05-07T13:21:43;5.93;;;4.53;;
16922;SDS011;8578;50.938;13.556;2023-05-07T13:24:11;5.17;;;4.17;;
16922;SDS011;8578;50.938;13.556;2023-05-07T13:26:38;5.73;;;4.80;;
16922;SDS011;8578;50.938;13.556;2023-05-07T13:29:05;4.87;;;4.13;;
16922;SDS011;8578;50.938;13.556;2023-05-07T13:31:33;7.90;;;4.60;;
16922;SDS011;8578;50.938;13.556;2023-05-07T13:34:01;7.23;;;5.33;;
16922;SDS011;8578;50.938;13.556;2023-05-07T13:36:30;8.03;;;5.20;;
16922;SDS011;8578;50.938;13.556;2023-05-07T13:38:59;6.00;;;5.37;;
16922;SDS011;8578;50.938;13.556;2023-05-07T13:41:26;7.30;;;5.07;;
16922;SDS011;8578;50.938;13.556;2023-05-07T13:43:54;6.33;;;4.97;;
16922;SDS011;8578;50.938;13.556;2023-05-07T13:46:21;6.13;;;4.83;;
16922;SDS011;8578;50.938;13.556;2023-05-07T13:48:49;6.27;;;4.67;;
16922;SDS011;8578;50.938;13.556;2023-05-07T13:51:17;6.50;;;5.33;;
16922;SDS011;8578;50.938;13.556;2023-05-07T13:53:46;5.53;;;4.97;;
16922;SDS011;8578;50.938;13.556;2023-05-07T13:56:14;5.97;;;4.50;;
16922;SDS011;8578;50.938;13.556;2023-05-07T13:58:41;5.97;;;4.40;;
16922;SDS011;8578;50.938;13.556;2023-05-07T14:01:24;5.53;;;4.50;;
16922;SDS011;8578;50.938;13.556;2023-05-07T14:03:52;5.57;;;4.67;;
16922;SDS011;8578;50.938;13.556;2023-05-07T14:06:19;5.70;;;4.33;;
16922;SDS011;8578;50.938;13.556;2023-05-07T14:08:50;4.80;;;4.07;;
16922;SDS011;8578;50.938;13.556;2023-05-07T14:11:17;5.10;;;4.57;;
16922;SDS011;8578;50.938;13.556;2023-05-07T14:13:45;4.57;;;4.10;;
16922;SDS011;8578;50.938;13.556;2023-05-07T14:16:12;6.53;;;4.87;;
16922;SDS011;8578;50.938;13.556;2023-05-07T14:18:40;6.17;;;4.93;;
16922;SDS011;8578;50.938;13.556;2023-05-07T14:21:07;6.60;;;4.50;;
16922;SDS011;8578;50.938;13.556;2023-05-07T14:23:35;7.23;;;4.53;;
16922;SDS011;8578;50.938;13.556;2023-05-07T14:26:04;6.27;;;4.77;;
16922;SDS011;8578;50.938;13.556;2023-05-07T14:28:32;5.47;;;4.63;;
16922;SDS011;8578;50.938;13.556;2023-05-07T14:30:59;4.83;;;4.33;;
16922;SDS011;8578;50.938;13.556;2023-05-07T14:33:27;5.77;;;4.63;;
16922;SDS011;8578;50.938;13.556;2023-05-07T14:35:54;4.60;;;4.17;;
16922;SDS011;8578;50.938;13.556;2023-05-07T14:38:22;5.13;;;4.30;;
16922;SDS011;8578;50.938;13.556;2023-05-07T14:40:49;4.67;;;3.97;;
16922;SDS011;8578;50.938;13.556;2023-05-07T14:43:19;5.43;;;3.80;;
16922;SDS011;8578;50.938;13.556;2023-05-07T14:45:48;4.90;;;4.00;;
16922;SDS011;8578;50.938;13.556;2023-05-07T14:48:16;3.93;;;3.53;;
16922;SDS011;8578;50.938;13.556;2023-05-07T14:50:46;5.53;;;4.20;;
16922;SDS011;8578;50.938;13.556;2023-05-07T14:53:14;5.93;;;3.70;;
16922;SDS011;8578;50.938;13.556;2023-05-07T14:55:42;4.70;;;4.20;;
16922;SDS011;8578;50.938;13.556;2023-05-07T14:58:09;5.70;;;4.10;;
16922;SDS011;8578;50.938;13.556;2023-05-07T15:00:38;5.70;;;4.17;;
16922;SDS011;8578;50.938;13.556;2023-05-07T15:03:06;5.27;;;4.03;;